createdAt,value
2022-09-22T00:05:09.861Z,70
2022-09-22T00:10:49.730Z,66
2022-09-22T00:16:31.071Z,68
2022-09-22T00:22:11.246Z,58
2022-09-22T00:27:51.405Z,70
2022-09-22T00:33:31.179Z,54
2022-09-22T00:39:10.834Z,62
2022-09-22T00:44:50.729Z,70
2022-09-22T00:50:33.435Z,66
2022-09-22T00:56:13.575Z,66
2022-09-22T01:01:54.502Z,72
2022-09-22T01:07:34.558Z,72
2022-09-22T01:13:16.829Z,68
2022-09-22T01:19:00.381Z,66
2022-09-22T01:24:43.476Z,56
2022-09-22T01:41:46.575Z,70
2022-09-22T01:47:26.876Z,50
2022-09-22T01:53:06.795Z,64
2022-09-22T01:58:46.682Z,58
2022-09-22T02:04:27.063Z,64
2022-09-22T02:10:07.735Z,64
2022-09-22T02:15:48.320Z,66
2022-09-22T02:21:28.355Z,54
2022-09-22T02:27:08.642Z,60
2022-09-22T02:32:48.733Z,52
2022-09-22T02:38:28.446Z,54
2022-09-22T02:44:09.234Z,68
2022-09-22T02:49:49.346Z,58
2022-09-22T02:55:29.303Z,66
2022-09-22T03:01:09.779Z,66
2022-09-22T03:06:49.941Z,48
2022-09-22T03:12:35.481Z,72
2022-09-22T03:26:09.647Z,48
2022-09-22T03:31:50.030Z,74
2022-09-22T03:37:30.478Z,68
2022-09-22T03:43:20.624Z,60
2022-09-22T03:49:00.784Z,64
2022-09-22T03:54:41.828Z,62
2022-09-22T04:00:22.580Z,60
2022-09-22T04:06:02.939Z,74
2022-09-22T04:11:43.351Z,66
2022-09-22T04:17:38.400Z,64
2022-09-22T04:23:26.773Z,66
2022-09-22T04:29:27.799Z,56
2022-09-22T04:35:09.793Z,74
2022-09-22T04:40:59.689Z,58
2022-09-22T04:46:40.901Z,58
2022-09-22T04:52:24.730Z,72
2022-09-22T04:58:07.581Z,70
2022-09-22T05:03:47.690Z,70
2022-09-22T05:09:27.735Z,66
2022-09-22T05:15:07.649Z,68
2022-09-22T05:20:47.820Z,72
2022-09-22T05:26:27.662Z,70
2022-09-22T05:32:10.941Z,56
2022-09-22T05:37:50.763Z,60
2022-09-22T05:43:30.719Z,62
2022-09-22T05:49:10.502Z,66
2022-09-22T05:54:54.710Z,54
2022-09-22T06:06:18.955Z,56
2022-09-22T06:12:02.587Z,54
2022-09-22T06:23:23.916Z,64
2022-09-22T06:29:04.009Z,66
2022-09-22T06:34:44.618Z,48
2022-09-22T06:40:26.648Z,52
2022-09-22T06:46:08.527Z,64
2022-09-22T06:51:51.673Z,64
2022-09-22T06:57:32.310Z,64
2022-09-22T07:03:15.781Z,76
2022-09-22T07:08:56.522Z,64
2022-09-22T07:14:39.577Z,66
2022-09-22T07:20:22.880Z,64
2022-09-22T07:26:03.747Z,76
2022-09-22T07:31:44.604Z,66
2022-09-22T07:37:24.874Z,78
2022-09-22T07:43:07.597Z,76
2022-09-22T07:48:48.100Z,76
2022-09-22T07:54:28.219Z,70
2022-09-22T08:11:29.530Z,78
2022-09-22T08:17:09.741Z,70
2022-09-22T08:22:53.817Z,76
2022-09-22T08:28:34.415Z,70
2022-09-22T08:34:15.222Z,64
2022-09-22T08:39:58.090Z,82
2022-09-22T08:45:38.211Z,72
2022-09-22T08:51:18.340Z,72
2022-09-22T08:56:58.827Z,76
2022-09-22T09:02:41.504Z,38
2022-09-22T09:08:22.572Z,22
2022-09-22T09:14:06.193Z,16
2022-09-22T09:19:47.024Z,16
2022-09-22T09:25:28.808Z,16
2022-09-22T09:31:12.360Z,20
2022-09-22T09:36:56.888Z,24
2022-09-22T09:42:37.505Z,14
2022-09-22T09:54:03.776Z,2
2022-09-22T09:59:44.537Z,0
2022-09-22T10:05:33.229Z,0
2022-09-22T10:11:16.001Z,0
2022-09-22T10:16:57.743Z,0
2022-09-22T10:22:40.481Z,2
2022-09-22T10:28:25.035Z,0
2022-09-22T10:34:06.396Z,0
2022-09-22T10:39:46.945Z,0
2022-09-22T10:45:32.885Z,2
2022-09-22T10:51:18.551Z,2
2022-09-22T10:57:01.388Z,2
2022-09-22T11:02:44.137Z,0
2022-09-22T11:08:24.446Z,0
2022-09-22T11:14:05.236Z,4
2022-09-22T11:19:49.559Z,0
2022-09-22T11:25:29.458Z,0
2022-09-22T11:31:10.834Z,0
2022-09-22T11:36:52.292Z,0
2022-09-22T11:42:38.314Z,0
2022-09-22T11:48:29.475Z,0
2022-09-22T11:59:51.161Z,2
2022-09-22T12:05:31.070Z,2
2022-09-22T12:11:12.199Z,0
2022-09-22T12:16:55.655Z,2
2022-09-22T12:22:36.416Z,2
2022-09-22T12:28:22.615Z,0
2022-09-22T12:34:09.274Z,0
2022-09-22T12:39:49.725Z,0
2022-09-22T12:45:36.332Z,8
2022-09-22T12:51:20.327Z,0
2022-09-22T12:57:08.104Z,2
2022-09-22T13:02:48.549Z,0
2022-09-22T13:08:31.825Z,0
2022-09-22T13:14:22.216Z,4
2022-09-22T13:20:06.367Z,2
2022-09-22T13:25:46.990Z,0
2022-09-22T13:31:37.184Z,2
2022-09-22T13:42:58.297Z,4
2022-09-22T13:48:38.502Z,2
2022-09-22T13:54:19.537Z,0
2022-09-22T13:59:59.791Z,2
2022-09-22T14:05:54.447Z,10
2022-09-22T14:11:34.848Z,26
2022-09-22T14:17:15.069Z,20
2022-09-22T14:22:55.207Z,90
2022-09-22T14:28:35.058Z,94
2022-09-22T14:34:15.303Z,70
2022-09-22T14:39:55.658Z,72
2022-09-22T14:45:36.431Z,68
2022-09-22T14:51:17.970Z,70
2022-09-22T14:56:58.804Z,78
2022-09-22T15:02:39.561Z,78
2022-09-22T15:08:20.322Z,80
2022-09-22T15:14:00.337Z,80
2022-09-22T15:19:40.408Z,78
2022-09-22T15:31:00.840Z,76
2022-09-22T15:36:41.160Z,72
2022-09-22T15:42:22.147Z,70
2022-09-22T15:48:02.572Z,66
2022-09-22T15:53:42.871Z,76
2022-09-22T15:59:23.214Z,66
2022-09-22T16:05:03.651Z,76
2022-09-22T16:10:43.794Z,78
2022-09-22T16:16:24.697Z,70
2022-09-22T16:22:05.436Z,72
2022-09-22T16:27:45.574Z,78
2022-09-22T16:33:26.094Z,92
2022-09-22T16:39:07.064Z,68
2022-09-22T16:44:47.256Z,68
2022-09-22T16:50:30.731Z,64
2022-09-22T16:56:11.547Z,64
2022-09-22T17:01:52.664Z,74
2022-09-22T17:07:33.325Z,66
2022-09-22T17:13:34.318Z,58
2022-09-22T17:19:14.967Z,86
2022-09-22T17:24:56.049Z,64
2022-09-22T17:30:39.218Z,66
2022-09-22T17:36:26.564Z,80
2022-09-22T17:42:10.069Z,70
2022-09-22T17:47:50.359Z,76
2022-09-22T17:53:30.568Z,76
2022-09-22T17:59:10.825Z,76
2022-09-22T18:04:51.134Z,76
2022-09-22T18:10:31.338Z,66
2022-09-22T18:16:12.865Z,62
2022-09-22T18:21:53.575Z,70
2022-09-22T18:27:33.632Z,76
2022-09-22T18:33:17.150Z,76
2022-09-22T18:38:57.337Z,64
2022-09-22T18:44:37.507Z,60
2022-09-22T18:55:59.081Z,60
2022-09-22T19:01:39.969Z,76
2022-09-22T19:07:21.016Z,68
2022-09-22T19:13:01.324Z,78
2022-09-22T19:18:41.454Z,64
2022-09-22T19:24:27.249Z,60
2022-09-22T19:30:07.654Z,72
2022-09-22T19:35:47.981Z,76
2022-09-22T19:41:28.327Z,80
2022-09-22T19:47:08.807Z,64
2022-09-22T19:52:55.118Z,70
2022-09-22T19:58:35.864Z,74
2022-09-22T20:04:19.156Z,66
2022-09-22T20:10:07.814Z,70
2022-09-22T20:15:49.225Z,72
2022-09-22T20:21:29.715Z,60
2022-09-22T20:27:15.725Z,70
2022-09-22T20:32:56.654Z,60
2022-09-22T20:44:17.133Z,64
2022-09-22T20:50:03.632Z,66
2022-09-22T20:55:49.363Z,76
2022-09-22T21:01:32.915Z,60
2022-09-22T21:07:22.554Z,66
2022-09-22T21:13:06.102Z,66
2022-09-22T21:18:46.814Z,70
2022-09-22T21:24:27.218Z,62
2022-09-22T21:30:10.128Z,64
2022-09-22T21:35:50.476Z,60
2022-09-22T21:41:30.697Z,64
2022-09-22T21:47:11.022Z,72
2022-09-22T21:52:51.641Z,60
2022-09-22T21:58:32.061Z,76
2022-09-22T22:04:13.315Z,72
2022-09-22T22:09:53.694Z,70
2022-09-22T22:15:34.724Z,66
2022-09-22T22:21:15.602Z,64
2022-09-22T22:26:55.935Z,70
2022-09-22T22:32:36.628Z,64
2022-09-22T22:38:17.021Z,54
2022-09-22T22:55:18.858Z,76
2022-09-22T23:00:59.914Z,76
2022-09-22T23:06:40.938Z,68
2022-09-22T23:12:21.016Z,64
2022-09-22T23:18:01.337Z,64
2022-09-22T23:23:41.963Z,64
2022-09-22T23:29:22.340Z,70
2022-09-22T23:35:02.413Z,102
2022-09-22T23:40:43.602Z,58
2022-09-22T23:46:24.958Z,70
2022-09-22T23:52:08.804Z,72
2022-09-22T23:57:51.466Z,50
